EmailTwitter


Observations de surface / Québec / CYMX

Régions: Québec | Canada | États-Unis | Europe | France | UK | Ailleurs
Station
Affichage
Infos & localisation pour CYMX | Aide pour décoder les METARs

Observations prises le 2020-02-21 à 02H00 UTC à MONTREAL MIRABEL, QB (CYMX)

Etat du ciel: quelques nuages.

Température: -16.0 Celsius

Point de rosée: -23.0 Celsius

Humidité relative: 55%

Facteur vent: -21.

Vents: Sud-ouest à 7 km/h ou 4 noeuds.

Pression au niveau moyen de la mer: 103.25 kilopascals.

Calage altimétrique: 103.15 kilopascals ou 30.46 pouces de mercure.

Visibilité horizontale: 25.00 milles terrestres ou 40.00 kilomètres.

Observation METAR:

CYMX 210200Z 24004KT 25SM FEW140 M16/M23 A3046 RMK AC1 SLP325=